sensor_id;sensor_type;location;lat;lon;timestamp;P1;durP1;ratioP1;P2;durP2;ratioP2
9108;SDS011;4590;51.462;6.692;2022-07-10T00:00:14;3.58;;;1.15;;
9108;SDS011;4590;51.462;6.692;2022-07-10T00:02:42;2.78;;;0.80;;
9108;SDS011;4590;51.462;6.692;2022-07-10T00:05:08;1.47;;;0.70;;
9108;SDS011;4590;51.462;6.692;2022-07-10T00:07:34;2.78;;;0.60;;
9108;SDS011;4590;51.462;6.692;2022-07-10T00:10:00;5.63;;;1.00;;
9108;SDS011;4590;51.462;6.692;2022-07-10T00:12:25;1.60;;;0.60;;
9108;SDS011;4590;51.462;6.692;2022-07-10T00:14:51;3.80;;;0.60;;
9108;SDS011;4590;51.462;6.692;2022-07-10T00:17:16;2.65;;;0.65;;
9108;SDS011;4590;51.462;6.692;2022-07-10T00:19:42;1.83;;;0.70;;
9108;SDS011;4590;51.462;6.692;2022-07-10T00:22:07;3.67;;;0.80;;
9108;SDS011;4590;51.462;6.692;2022-07-10T00:24:33;3.00;;;1.40;;
9108;SDS011;4590;51.462;6.692;2022-07-10T00:26:58;7.37;;;0.93;;
9108;SDS011;4590;51.462;6.692;2022-07-10T00:29:24;4.53;;;0.90;;
9108;SDS011;4590;51.462;6.692;2022-07-10T00:31:49;2.00;;;0.60;;
9108;SDS011;4590;51.462;6.692;2022-07-10T00:34:14;3.57;;;0.83;;
9108;SDS011;4590;51.462;6.692;2022-07-10T00:36:40;2.37;;;0.60;;
9108;SDS011;4590;51.462;6.692;2022-07-10T00:39:05;2.17;;;0.63;;
9108;SDS011;4590;51.462;6.692;2022-07-10T00:41:30;2.70;;;0.73;;
9108;SDS011;4590;51.462;6.692;2022-07-10T00:43:57;4.00;;;0.82;;
9108;SDS011;4590;51.462;6.692;2022-07-10T00:46:24;5.82;;;1.27;;
9108;SDS011;4590;51.462;6.692;2022-07-10T00:48:50;3.47;;;0.70;;
9108;SDS011;4590;51.462;6.692;2022-07-10T00:51:16;4.63;;;0.85;;
9108;SDS011;4590;51.462;6.692;2022-07-10T00:53:44;2.72;;;0.77;;
9108;SDS011;4590;51.462;6.692;2022-07-10T00:56:10;2.53;;;0.70;;
9108;SDS011;4590;51.462;6.692;2022-07-10T00:58:36;1.92;;;0.65;;
9108;SDS011;4590;51.462;6.692;2022-07-10T01:01:04;3.35;;;0.85;;
9108;SDS011;4590;51.462;6.692;2022-07-10T01:03:29;2.78;;;0.73;;
9108;SDS011;4590;51.462;6.692;2022-07-10T01:05:55;4.60;;;0.80;;
9108;SDS011;4590;51.462;6.692;2022-07-10T01:08:20;2.93;;;0.70;;
9108;SDS011;4590;51.462;6.692;2022-07-10T01:10:45;3.97;;;0.90;;
9108;SDS011;4590;51.462;6.692;2022-07-10T01:13:12;3.13;;;0.70;;
9108;SDS011;4590;51.462;6.692;2022-07-10T01:15:38;3.27;;;0.70;;
9108;SDS011;4590;51.462;6.692;2022-07-10T01:18:03;3.40;;;0.70;;
9108;SDS011;4590;51.462;6.692;2022-07-10T01:20:31;3.83;;;0.80;;
9108;SDS011;4590;51.462;6.692;2022-07-10T01:22:57;5.53;;;0.95;;
9108;SDS011;4590;51.462;6.692;2022-07-10T01:25:23;2.80;;;0.83;;
9108;SDS011;4590;51.462;6.692;2022-07-10T01:27:49;4.18;;;0.73;;
9108;SDS011;4590;51.462;6.692;2022-07-10T01:30:15;2.60;;;0.85;;
9108;SDS011;4590;51.462;6.692;2022-07-10T01:32:40;2.87;;;0.70;;
9108;SDS011;4590;51.462;6.692;2022-07-10T01:35:06;3.37;;;0.70;;
9108;SDS011;4590;51.462;6.692;2022-07-10T01:37:32;3.40;;;0.82;;
9108;SDS011;4590;51.462;6.692;2022-07-10T01:39:57;2.73;;;0.57;;
9108;SDS011;4590;51.462;6.692;2022-07-10T01:42:22;2.20;;;0.80;;
9108;SDS011;4590;51.462;6.692;2022-07-10T01:44:48;4.13;;;0.97;;
9108;SDS011;4590;51.462;6.692;2022-07-10T01:47:13;5.40;;;1.10;;
9108;SDS011;4590;51.462;6.692;2022-07-10T01:49:38;3.73;;;0.73;;
9108;SDS011;4590;51.462;6.692;2022-07-10T01:52:04;3.10;;;0.90;;
9108;SDS011;4590;51.462;6.692;2022-07-10T01:54:29;2.25;;;0.70;;
9108;SDS011;4590;51.462;6.692;2022-07-10T01:56:55;4.20;;;0.73;;
9108;SDS011;4590;51.462;6.692;2022-07-10T01:59:20;4.17;;;0.80;;
9108;SDS011;4590;51.462;6.692;2022-07-10T02:01:45;2.27;;;0.70;;
9108;SDS011;4590;51.462;6.692;2022-07-10T02:04:10;3.67;;;0.93;;
9108;SDS011;4590;51.462;6.692;2022-07-10T02:06:55;2.97;;;0.65;;
9108;SDS011;4590;51.462;6.692;2022-07-10T02:09:20;4.90;;;1.20;;
9108;SDS011;4590;51.462;6.692;2022-07-10T02:11:45;2.70;;;0.80;;
9108;SDS011;4590;51.462;6.692;2022-07-10T02:14:10;2.40;;;0.70;;
9108;SDS011;4590;51.462;6.692;2022-07-10T02:16:36;1.77;;;0.67;;
9108;SDS011;4590;51.462;6.692;2022-07-10T02:19:01;3.90;;;1.00;;
9108;SDS011;4590;51.462;6.692;2022-07-10T02:21:27;3.38;;;0.70;;
9108;SDS011;4590;51.462;6.692;2022-07-10T02:23:52;3.87;;;0.90;;
9108;SDS011;4590;51.462;6.692;2022-07-10T02:26:17;2.97;;;0.70;;
9108;SDS011;4590;51.462;6.692;2022-07-10T02:28:43;3.80;;;0.87;;
9108;SDS011;4590;51.462;6.692;2022-07-10T02:31:08;2.93;;;0.70;;
9108;SDS011;4590;51.462;6.692;2022-07-10T02:33:33;2.50;;;0.67;;
9108;SDS011;4590;51.462;6.692;2022-07-10T02:35:59;3.42;;;0.80;;
9108;SDS011;4590;51.462;6.692;2022-07-10T02:38:24;3.93;;;1.03;;
9108;SDS011;4590;51.462;6.692;2022-07-10T02:40:50;3.47;;;0.90;;
9108;SDS011;4590;51.462;6.692;2022-07-10T02:43:15;3.60;;;0.73;;
9108;SDS011;4590;51.462;6.692;2022-07-10T02:45:40;4.20;;;1.00;;
9108;SDS011;4590;51.462;6.692;2022-07-10T02:48:06;4.60;;;1.30;;
9108;SDS011;4590;51.462;6.692;2022-07-10T02:50:31;3.47;;;0.83;;
9108;SDS011;4590;51.462;6.692;2022-07-10T02:52:56;3.40;;;1.10;;
9108;SDS011;4590;51.462;6.692;2022-07-10T02:55:21;4.10;;;1.00;;
9108;SDS011;4590;51.462;6.692;2022-07-10T02:57:47;6.97;;;1.70;;
9108;SDS011;4590;51.462;6.692;2022-07-10T03:00:12;2.37;;;1.07;;
9108;SDS011;4590;51.462;6.692;2022-07-10T03:02:38;3.95;;;0.82;;
9108;SDS011;4590;51.462;6.692;2022-07-10T03:05:03;2.27;;;1.00;;
9108;SDS011;4590;51.462;6.692;2022-07-10T03:07:29;6.03;;;1.17;;
9108;SDS011;4590;51.462;6.692;2022-07-10T03:09:54;2.67;;;0.80;;
9108;SDS011;4590;51.462;6.692;2022-07-10T03:12:19;4.30;;;0.90;;
9108;SDS011;4590;51.462;6.692;2022-07-10T03:14:45;3.40;;;1.30;;
9108;SDS011;4590;51.462;6.692;2022-07-10T03:17:10;2.43;;;0.90;;
9108;SDS011;4590;51.462;6.692;2022-07-10T03:19:35;3.70;;;1.20;;
9108;SDS011;4590;51.462;6.692;2022-07-10T03:22:00;3.63;;;1.17;;
9108;SDS011;4590;51.462;6.692;2022-07-10T03:24:26;5.00;;;1.20;;
9108;SDS011;4590;51.462;6.692;2022-07-10T03:26:51;3.60;;;1.07;;
9108;SDS011;4590;51.462;6.692;2022-07-10T03:29:16;4.90;;;0.83;;
9108;SDS011;4590;51.462;6.692;2022-07-10T03:31:42;3.00;;;1.05;;
9108;SDS011;4590;51.462;6.692;2022-07-10T03:34:07;4.68;;;1.33;;
9108;SDS011;4590;51.462;6.692;2022-07-10T03:36:33;2.33;;;0.97;;
9108;SDS011;4590;51.462;6.692;2022-07-10T03:38:58;1.87;;;0.83;;
9108;SDS011;4590;51.462;6.692;2022-07-10T03:41:23;4.50;;;1.10;;
9108;SDS011;4590;51.462;6.692;2022-07-10T03:43:48;4.03;;;1.00;;
9108;SDS011;4590;51.462;6.692;2022-07-10T03:46:14;4.17;;;1.17;;
9108;SDS011;4590;51.462;6.692;2022-07-10T03:48:39;5.33;;;1.13;;
9108;SDS011;4590;51.462;6.692;2022-07-10T03:51:04;4.23;;;1.40;;
9108;SDS011;4590;51.462;6.692;2022-07-10T03:53:30;5.63;;;1.13;;
9108;SDS011;4590;51.462;6.692;2022-07-10T03:55:55;4.33;;;1.30;;
9108;SDS011;4590;51.462;6.692;2022-07-10T03:58:20;4.43;;;1.13;;
9108;SDS011;4590;51.462;6.692;2022-07-10T04:00:46;4.55;;;1.63;;
9108;SDS011;4590;51.462;6.692;2022-07-10T04:03:11;2.83;;;1.10;;
9108;SDS011;4590;51.462;6.692;2022-07-10T04:05:38;4.75;;;1.25;;
9108;SDS011;4590;51.462;6.692;2022-07-10T04:08:04;3.30;;;1.35;;
9108;SDS011;4590;51.462;6.692;2022-07-10T04:10:30;4.38;;;1.13;;
9108;SDS011;4590;51.462;6.692;2022-07-10T04:12:58;6.38;;;1.10;;
9108;SDS011;4590;51.462;6.692;2022-07-10T04:15:24;4.43;;;1.10;;
9108;SDS011;4590;51.462;6.692;2022-07-10T04:17:50;2.30;;;0.88;;
9108;SDS011;4590;51.462;6.692;2022-07-10T04:20:16;3.15;;;0.90;;
9108;SDS011;4590;51.462;6.692;2022-07-10T04:22:41;5.20;;;1.25;;
9108;SDS011;4590;51.462;6.692;2022-07-10T04:25:07;2.47;;;0.90;;
9108;SDS011;4590;51.462;6.692;2022-07-10T04:27:34;2.85;;;0.90;;
9108;SDS011;4590;51.462;6.692;2022-07-10T04:29:59;6.05;;;1.13;;
9108;SDS011;4590;51.462;6.692;2022-07-10T04:32:24;6.20;;;1.10;;
9108;SDS011;4590;51.462;6.692;2022-07-10T04:34:50;4.67;;;1.20;;
9108;SDS011;4590;51.462;6.692;2022-07-10T04:37:15;2.53;;;0.97;;
9108;SDS011;4590;51.462;6.692;2022-07-10T04:39:41;3.97;;;1.05;;
9108;SDS011;4590;51.462;6.692;2022-07-10T04:42:07;4.05;;;1.33;;
9108;SDS011;4590;51.462;6.692;2022-07-10T04:44:33;4.40;;;1.40;;
9108;SDS011;4590;51.462;6.692;2022-07-10T04:46:58;2.70;;;1.40;;
9108;SDS011;4590;51.462;6.692;2022-07-10T04:49:24;4.50;;;1.50;;
9108;SDS011;4590;51.462;6.692;2022-07-10T04:51:49;4.35;;;1.60;;
9108;SDS011;4590;51.462;6.692;2022-07-10T04:54:15;4.40;;;1.50;;
9108;SDS011;4590;51.462;6.692;2022-07-10T04:56:40;6.93;;;2.47;;
9108;SDS011;4590;51.462;6.692;2022-07-10T04:59:05;3.73;;;2.20;;
9108;SDS011;4590;51.462;6.692;2022-07-10T05:01:31;4.17;;;1.90;;
9108;SDS011;4590;51.462;6.692;2022-07-10T05:03:56;4.38;;;2.33;;
9108;SDS011;4590;51.462;6.692;2022-07-10T05:06:21;4.83;;;2.00;;
9108;SDS011;4590;51.462;6.692;2022-07-10T05:08:47;6.30;;;1.60;;
9108;SDS011;4590;51.462;6.692;2022-07-10T05:11:12;5.70;;;1.23;;
9108;SDS011;4590;51.462;6.692;2022-07-10T05:13:37;2.57;;;1.30;;
9108;SDS011;4590;51.462;6.692;2022-07-10T05:16:03;5.77;;;1.30;;
9108;SDS011;4590;51.462;6.692;2022-07-10T05:18:29;4.55;;;1.20;;
9108;SDS011;4590;51.462;6.692;2022-07-10T05:20:55;3.40;;;1.37;;
9108;SDS011;4590;51.462;6.692;2022-07-10T05:23:20;2.87;;;1.20;;
9108;SDS011;4590;51.462;6.692;2022-07-10T05:25:45;7.80;;;1.40;;
9108;SDS011;4590;51.462;6.692;2022-07-10T05:28:10;4.10;;;1.40;;
9108;SDS011;4590;51.462;6.692;2022-07-10T05:30:39;2.67;;;1.10;;
9108;SDS011;4590;51.462;6.692;2022-07-10T05:33:04;4.20;;;1.13;;
9108;SDS011;4590;51.462;6.692;2022-07-10T05:35:29;3.07;;;1.20;;
9108;SDS011;4590;51.462;6.692;2022-07-10T05:37:55;2.97;;;1.20;;
9108;SDS011;4590;51.462;6.692;2022-07-10T05:40:20;3.40;;;1.20;;
9108;SDS011;4590;51.462;6.692;2022-07-10T05:42:46;3.25;;;1.00;;
9108;SDS011;4590;51.462;6.692;2022-07-10T05:45:11;3.30;;;0.80;;
9108;SDS011;4590;51.462;6.692;2022-07-10T05:47:36;3.30;;;1.00;;
9108;SDS011;4590;51.462;6.692;2022-07-10T05:50:02;6.00;;;1.17;;
9108;SDS011;4590;51.462;6.692;2022-07-10T05:54:55;4.20;;;1.10;;
9108;SDS011;4590;51.462;6.692;2022-07-10T05:57:21;2.50;;;0.98;;
9108;SDS011;4590;51.462;6.692;2022-07-10T05:59:46;4.47;;;1.13;;
9108;SDS011;4590;51.462;6.692;2022-07-10T06:02:12;6.70;;;1.50;;
9108;SDS011;4590;51.462;6.692;2022-07-10T06:04:37;3.97;;;1.17;;
9108;SDS011;4590;51.462;6.692;2022-07-10T06:07:02;3.33;;;1.03;;
9108;SDS011;4590;51.462;6.692;2022-07-10T06:09:28;3.40;;;1.17;;
9108;SDS011;4590;51.462;6.692;2022-07-10T06:11:53;5.28;;;1.13;;
9108;SDS011;4590;51.462;6.692;2022-07-10T06:14:18;3.33;;;0.90;;
9108;SDS011;4590;51.462;6.692;2022-07-10T06:16:44;4.67;;;1.40;;
9108;SDS011;4590;51.462;6.692;2022-07-10T06:19:09;4.00;;;1.20;;
9108;SDS011;4590;51.462;6.692;2022-07-10T06:21:34;3.70;;;1.40;;
9108;SDS011;4590;51.462;6.692;2022-07-10T06:23:59;3.10;;;1.20;;
9108;SDS011;4590;51.462;6.692;2022-07-10T06:26:25;4.43;;;0.90;;
9108;SDS011;4590;51.462;6.692;2022-07-10T06:28:50;3.07;;;0.97;;
9108;SDS011;4590;51.462;6.692;2022-07-10T06:31:16;3.30;;;1.10;;
9108;SDS011;4590;51.462;6.692;2022-07-10T06:33:41;5.30;;;1.20;;
9108;SDS011;4590;51.462;6.692;2022-07-10T06:36:06;4.35;;;1.00;;
9108;SDS011;4590;51.462;6.692;2022-07-10T06:38:32;4.40;;;0.90;;
9108;SDS011;4590;51.462;6.692;2022-07-10T06:40:57;3.10;;;1.20;;
9108;SDS011;4590;51.462;6.692;2022-07-10T06:43:23;4.87;;;1.50;;
9108;SDS011;4590;51.462;6.692;2022-07-10T06:45:48;3.97;;;1.10;;
9108;SDS011;4590;51.462;6.692;2022-07-10T06:48:13;4.80;;;1.20;;
9108;SDS011;4590;51.462;6.692;2022-07-10T06:50:39;3.90;;;0.90;;
9108;SDS011;4590;51.462;6.692;2022-07-10T06:53:05;2.63;;;0.90;;
9108;SDS011;4590;51.462;6.692;2022-07-10T06:55:31;3.95;;;1.20;;
9108;SDS011;4590;51.462;6.692;2022-07-10T06:57:57;4.65;;;1.10;;
9108;SDS011;4590;51.462;6.692;2022-07-10T07:02:48;2.58;;;0.82;;
9108;SDS011;4590;51.462;6.692;2022-07-10T07:05:14;3.47;;;0.85;;
9108;SDS011;4590;51.462;6.692;2022-07-10T07:07:40;5.75;;;1.13;;
9108;SDS011;4590;51.462;6.692;2022-07-10T07:10:06;3.72;;;1.08;;
9108;SDS011;4590;51.462;6.692;2022-07-10T07:12:34;4.15;;;1.35;;
9108;SDS011;4590;51.462;6.692;2022-07-10T07:14:59;2.17;;;1.00;;
9108;SDS011;4590;51.462;6.692;2022-07-10T07:17:25;2.97;;;0.93;;
9108;SDS011;4590;51.462;6.692;2022-07-10T07:19:58;2.95;;;0.90;;
9108;SDS011;4590;51.462;6.692;2022-07-10T07:22:42;4.90;;;1.30;;
9108;SDS011;4590;51.462;6.692;2022-07-10T07:25:26;5.40;;;1.25;;
9108;SDS011;4590;51.462;6.692;2022-07-10T07:27:52;4.20;;;1.30;;
9108;SDS011;4590;51.462;6.692;2022-07-10T07:30:18;4.23;;;1.77;;
9108;SDS011;4590;51.462;6.692;2022-07-10T07:32:44;2.27;;;1.20;;
9108;SDS011;4590;51.462;6.692;2022-07-10T07:35:11;3.45;;;0.95;;
9108;SDS011;4590;51.462;6.692;2022-07-10T07:37:41;6.22;;;1.45;;
9108;SDS011;4590;51.462;6.692;2022-07-10T07:40:07;4.53;;;1.10;;
9108;SDS011;4590;51.462;6.692;2022-07-10T07:42:34;7.72;;;1.30;;
9108;SDS011;4590;51.462;6.692;2022-07-10T07:45:00;3.13;;;0.98;;
9108;SDS011;4590;51.462;6.692;2022-07-10T07:47:26;2.87;;;1.10;;
9108;SDS011;4590;51.462;6.692;2022-07-10T07:49:52;2.67;;;1.20;;
9108;SDS011;4590;51.462;6.692;2022-07-10T07:52:17;4.45;;;0.93;;
9108;SDS011;4590;51.462;6.692;2022-07-10T07:54:43;5.77;;;1.23;;
9108;SDS011;4590;51.462;6.692;2022-07-10T07:57:08;7.07;;;1.70;;
9108;SDS011;4590;51.462;6.692;2022-07-10T07:59:33;5.23;;;1.20;;
9108;SDS011;4590;51.462;6.692;2022-07-10T08:01:59;4.03;;;1.00;;
9108;SDS011;4590;51.462;6.692;2022-07-10T08:04:25;4.13;;;1.10;;
9108;SDS011;4590;51.462;6.692;2022-07-10T08:06:50;5.57;;;1.45;;
9108;SDS011;4590;51.462;6.692;2022-07-10T08:09:17;5.28;;;1.58;;
9108;SDS011;4590;51.462;6.692;2022-07-10T08:11:43;3.72;;;1.23;;
9108;SDS011;4590;51.462;6.692;2022-07-10T08:14:09;3.95;;;1.20;;
9108;SDS011;4590;51.462;6.692;2022-07-10T08:16:34;3.57;;;1.10;;
9108;SDS011;4590;51.462;6.692;2022-07-10T08:18:59;6.60;;;1.40;;
9108;SDS011;4590;51.462;6.692;2022-07-10T08:21:24;7.47;;;1.87;;
9108;SDS011;4590;51.462;6.692;2022-07-10T08:23:50;4.13;;;1.60;;
9108;SDS011;4590;51.462;6.692;2022-07-10T08:26:15;4.67;;;1.47;;
9108;SDS011;4590;51.462;6.692;2022-07-10T08:28:40;4.70;;;1.60;;
9108;SDS011;4590;51.462;6.692;2022-07-10T08:31:06;3.57;;;1.33;;
9108;SDS011;4590;51.462;6.692;2022-07-10T08:33:31;4.03;;;1.60;;
9108;SDS011;4590;51.462;6.692;2022-07-10T08:35:56;2.70;;;1.13;;
9108;SDS011;4590;51.462;6.692;2022-07-10T08:38:25;3.80;;;1.30;;
9108;SDS011;4590;51.462;6.692;2022-07-10T08:40:50;5.40;;;1.60;;
9108;SDS011;4590;51.462;6.692;2022-07-10T08:43:22;4.70;;;1.10;;
9108;SDS011;4590;51.462;6.692;2022-07-10T08:45:47;4.05;;;1.20;;
9108;SDS011;4590;51.462;6.692;2022-07-10T08:48:15;6.15;;;1.40;;
9108;SDS011;4590;51.462;6.692;2022-07-10T08:50:47;3.45;;;1.20;;
9108;SDS011;4590;51.462;6.692;2022-07-10T08:53:13;4.40;;;1.35;;
9108;SDS011;4590;51.462;6.692;2022-07-10T08:55:44;4.20;;;1.20;;
9108;SDS011;4590;51.462;6.692;2022-07-10T08:58:10;5.30;;;1.67;;
9108;SDS011;4590;51.462;6.692;2022-07-10T09:00:37;5.70;;;1.48;;
9108;SDS011;4590;51.462;6.692;2022-07-10T09:03:02;6.57;;;1.30;;
9108;SDS011;4590;51.462;6.692;2022-07-10T09:05:28;5.57;;;1.90;;
9108;SDS011;4590;51.462;6.692;2022-07-10T09:07:53;6.13;;;1.52;;
9108;SDS011;4590;51.462;6.692;2022-07-10T09:15:28;5.05;;;1.60;;
9108;SDS011;4590;51.462;6.692;2022-07-10T09:17:57;3.72;;;1.50;;
9108;SDS011;4590;51.462;6.692;2022-07-10T09:20:32;4.80;;;1.58;;
9108;SDS011;4590;51.462;6.692;2022-07-10T09:25:42;7.32;;;2.00;;
9108;SDS011;4590;51.462;6.692;2022-07-10T09:28:08;4.05;;;1.48;;
9108;SDS011;4590;51.462;6.692;2022-07-10T09:30:39;3.47;;;1.70;;
9108;SDS011;4590;51.462;6.692;2022-07-10T09:33:22;5.10;;;1.50;;
9108;SDS011;4590;51.462;6.692;2022-07-10T09:36:02;3.92;;;1.50;;
9108;SDS011;4590;51.462;6.692;2022-07-10T09:41:13;3.10;;;1.58;;
9108;SDS011;4590;51.462;6.692;2022-07-10T09:43:48;2.55;;;1.08;;
9108;SDS011;4590;51.462;6.692;2022-07-10T09:46:27;2.58;;;1.02;;
9108;SDS011;4590;51.462;6.692;2022-07-10T09:49:04;2.08;;;1.08;;
9108;SDS011;4590;51.462;6.692;2022-07-10T09:51:41;2.95;;;1.05;;
9108;SDS011;4590;51.462;6.692;2022-07-10T09:54:10;1.38;;;0.70;;
9108;SDS011;4590;51.462;6.692;2022-07-10T09:56:41;2.88;;;1.00;;
9108;SDS011;4590;51.462;6.692;2022-07-10T09:59:08;1.83;;;0.90;;
9108;SDS011;4590;51.462;6.692;2022-07-10T10:01:35;2.53;;;0.98;;
9108;SDS011;4590;51.462;6.692;2022-07-10T10:04:03;1.83;;;0.90;;
9108;SDS011;4590;51.462;6.692;2022-07-10T10:06:30;2.15;;;0.80;;
9108;SDS011;4590;51.462;6.692;2022-07-10T10:08:58;2.17;;;0.93;;
9108;SDS011;4590;51.462;6.692;2022-07-10T10:11:30;1.10;;;0.73;;
9108;SDS011;4590;51.462;6.692;2022-07-10T10:13:58;2.03;;;1.10;;
9108;SDS011;4590;51.462;6.692;2022-07-10T10:16:24;1.60;;;0.90;;
9108;SDS011;4590;51.462;6.692;2022-07-10T10:18:51;2.45;;;1.48;;
9108;SDS011;4590;51.462;6.692;2022-07-10T10:21:36;1.67;;;1.00;;
9108;SDS011;4590;51.462;6.692;2022-07-10T10:24:02;1.50;;;1.10;;
9108;SDS011;4590;51.462;6.692;2022-07-10T10:26:27;1.95;;;0.93;;
9108;SDS011;4590;51.462;6.692;2022-07-10T10:31:23;1.75;;;0.70;;
9108;SDS011;4590;51.462;6.692;2022-07-10T10:33:53;1.35;;;0.88;;
9108;SDS011;4590;51.462;6.692;2022-07-10T10:39:09;1.25;;;0.75;;
9108;SDS011;4590;51.462;6.692;2022-07-10T10:41:42;1.35;;;0.80;;
9108;SDS011;4590;51.462;6.692;2022-07-10T10:46:33;2.38;;;1.00;;
9108;SDS011;4590;51.462;6.692;2022-07-10T10:49:20;3.45;;;1.70;;
9108;SDS011;4590;51.462;6.692;2022-07-10T10:54:22;4.70;;;1.38;;
9108;SDS011;4590;51.462;6.692;2022-07-10T10:57:10;2.13;;;1.02;;
9108;SDS011;4590;51.462;6.692;2022-07-10T10:59:55;2.65;;;1.40;;
9108;SDS011;4590;51.462;6.692;2022-07-10T11:05:38;2.88;;;1.20;;
9108;SDS011;4590;51.462;6.692;2022-07-10T11:15:28;2.80;;;1.33;;
9108;SDS011;4590;51.462;6.692;2022-07-10T11:17:55;4.68;;;1.27;;
9108;SDS011;4590;51.462;6.692;2022-07-10T11:20:22;2.50;;;1.23;;
9108;SDS011;4590;51.462;6.692;2022-07-10T11:31:20;2.92;;;1.17;;
9108;SDS011;4590;51.462;6.692;2022-07-10T11:33:48;2.03;;;0.90;;
9108;SDS011;4590;51.462;6.692;2022-07-10T11:36:19;1.95;;;1.00;;
9108;SDS011;4590;51.462;6.692;2022-07-10T11:39:02;3.40;;;1.30;;
9108;SDS011;4590;51.462;6.692;2022-07-10T11:41:30;2.65;;;1.08;;
9108;SDS011;4590;51.462;6.692;2022-07-10T11:43:56;3.17;;;1.13;;
9108;SDS011;4590;51.462;6.692;2022-07-10T11:46:27;2.70;;;1.00;;
9108;SDS011;4590;51.462;6.692;2022-07-10T11:48:57;2.38;;;1.00;;
9108;SDS011;4590;51.462;6.692;2022-07-10T11:51:27;4.07;;;1.10;;
9108;SDS011;4590;51.462;6.692;2022-07-10T11:54:06;2.13;;;1.05;;
9108;SDS011;4590;51.462;6.692;2022-07-10T11:56:36;2.20;;;1.00;;
9108;SDS011;4590;51.462;6.692;2022-07-10T11:59:13;2.83;;;1.00;;
9108;SDS011;4590;51.462;6.692;2022-07-10T12:01:46;2.90;;;1.35;;
9108;SDS011;4590;51.462;6.692;2022-07-10T12:04:14;3.42;;;1.15;;
9108;SDS011;4590;51.462;6.692;2022-07-10T12:06:42;2.38;;;1.13;;
9108;SDS011;4590;51.462;6.692;2022-07-10T12:09:12;4.00;;;1.48;;
9108;SDS011;4590;51.462;6.692;2022-07-10T12:11:39;3.88;;;1.10;;
9108;SDS011;4590;51.462;6.692;2022-07-10T12:14:16;4.40;;;1.30;;
9108;SDS011;4590;51.462;6.692;2022-07-10T12:16:46;2.13;;;1.10;;
9108;SDS011;4590;51.462;6.692;2022-07-10T12:19:17;3.05;;;1.48;;
9108;SDS011;4590;51.462;6.692;2022-07-10T12:21:45;2.67;;;1.35;;
9108;SDS011;4590;51.462;6.692;2022-07-10T12:24:11;3.45;;;1.50;;
9108;SDS011;4590;51.462;6.692;2022-07-10T12:26:39;3.50;;;1.30;;
9108;SDS011;4590;51.462;6.692;2022-07-10T12:29:10;6.57;;;1.50;;
9108;SDS011;4590;51.462;6.692;2022-07-10T12:31:43;4.07;;;1.60;;
9108;SDS011;4590;51.462;6.692;2022-07-10T12:34:10;2.97;;;1.45;;
9108;SDS011;4590;51.462;6.692;2022-07-10T12:36:46;2.78;;;1.30;;
9108;SDS011;4590;51.462;6.692;2022-07-10T12:39:16;2.55;;;1.20;;
9108;SDS011;4590;51.462;6.692;2022-07-10T12:41:56;2.75;;;1.10;;
9108;SDS011;4590;51.462;6.692;2022-07-10T12:44:42;2.45;;;1.13;;
9108;SDS011;4590;51.462;6.692;2022-07-10T12:47:13;3.28;;;1.30;;
9108;SDS011;4590;51.462;6.692;2022-07-10T12:49:51;3.35;;;1.40;;
9108;SDS011;4590;51.462;6.692;2022-07-10T12:52:21;1.80;;;1.00;;
9108;SDS011;4590;51.462;6.692;2022-07-10T12:54:48;2.75;;;1.10;;
9108;SDS011;4590;51.462;6.692;2022-07-10T12:57:13;1.90;;;0.90;;
9108;SDS011;4590;51.462;6.692;2022-07-10T13:02:14;2.08;;;1.10;;
9108;SDS011;4590;51.462;6.692;2022-07-10T13:04:51;2.45;;;1.10;;
9108;SDS011;4590;51.462;6.692;2022-07-10T13:07:17;3.15;;;1.10;;
9108;SDS011;4590;51.462;6.692;2022-07-10T13:12:09;4.13;;;1.13;;
9108;SDS011;4590;51.462;6.692;2022-07-10T13:16:59;3.03;;;0.93;;
9108;SDS011;4590;51.462;6.692;2022-07-10T13:21:50;2.63;;;0.80;;
9108;SDS011;4590;51.462;6.692;2022-07-10T13:26:40;3.17;;;0.90;;
9108;SDS011;4590;51.462;6.692;2022-07-10T13:31:32;2.33;;;0.88;;
9108;SDS011;4590;51.462;6.692;2022-07-10T13:36:22;3.63;;;1.33;;
9108;SDS011;4590;51.462;6.692;2022-07-10T13:41:14;2.35;;;0.85;;
9108;SDS011;4590;51.462;6.692;2022-07-10T13:46:05;3.78;;;0.82;;
9108;SDS011;4590;51.462;6.692;2022-07-10T13:50:56;2.28;;;1.10;;
9108;SDS011;4590;51.462;6.692;2022-07-10T13:53:22;1.48;;;1.00;;
9108;SDS011;4590;51.462;6.692;2022-07-10T13:58:13;3.10;;;0.80;;
9108;SDS011;4590;51.462;6.692;2022-07-10T14:00:39;1.92;;;0.80;;
9108;SDS011;4590;51.462;6.692;2022-07-10T14:05:31;1.35;;;0.70;;
9108;SDS011;4590;51.462;6.692;2022-07-10T14:07:57;3.88;;;0.90;;
9108;SDS011;4590;51.462;6.692;2022-07-10T14:12:48;1.92;;;0.73;;
9108;SDS011;4590;51.462;6.692;2022-07-10T14:17:39;2.70;;;0.70;;
9108;SDS011;4590;51.462;6.692;2022-07-10T14:22:30;3.88;;;1.10;;
9108;SDS011;4590;51.462;6.692;2022-07-10T14:27:21;1.40;;;0.70;;
9108;SDS011;4590;51.462;6.692;2022-07-10T14:29:48;4.68;;;1.17;;
9108;SDS011;4590;51.462;6.692;2022-07-10T14:34:38;2.40;;;0.80;;
9108;SDS011;4590;51.462;6.692;2022-07-10T14:39:29;2.30;;;0.80;;
9108;SDS011;4590;51.462;6.692;2022-07-10T14:44:20;3.03;;;0.95;;
9108;SDS011;4590;51.462;6.692;2022-07-10T14:49:11;2.53;;;0.80;;
9108;SDS011;4590;51.462;6.692;2022-07-10T14:54:02;1.55;;;0.63;;
9108;SDS011;4590;51.462;6.692;2022-07-10T14:58:52;2.20;;;0.90;;
9108;SDS011;4590;51.462;6.692;2022-07-10T15:03:43;1.43;;;0.70;;
9108;SDS011;4590;51.462;6.692;2022-07-10T15:08:33;2.28;;;0.63;;
9108;SDS011;4590;51.462;6.692;2022-07-10T15:13:25;3.78;;;0.98;;
9108;SDS011;4590;51.462;6.692;2022-07-10T15:15:51;2.42;;;0.90;;
9108;SDS011;4590;51.462;6.692;2022-07-10T15:20:42;3.88;;;0.75;;
9108;SDS011;4590;51.462;6.692;2022-07-10T15:25:33;3.00;;;0.87;;
9108;SDS011;4590;51.462;6.692;2022-07-10T15:30:24;4.95;;;0.90;;
9108;SDS011;4590;51.462;6.692;2022-07-10T15:35:14;2.17;;;0.90;;
9108;SDS011;4590;51.462;6.692;2022-07-10T15:40:05;1.35;;;0.82;;
9108;SDS011;4590;51.462;6.692;2022-07-10T15:42:32;1.67;;;0.90;;
9108;SDS011;4590;51.462;6.692;2022-07-10T15:47:23;1.60;;;0.80;;
9108;SDS011;4590;51.462;6.692;2022-07-10T15:52:14;1.40;;;0.70;;
9108;SDS011;4590;51.462;6.692;2022-07-10T15:57:04;2.47;;;0.73;;
9108;SDS011;4590;51.462;6.692;2022-07-10T16:01:56;4.93;;;0.73;;
9108;SDS011;4590;51.462;6.692;2022-07-10T16:06:49;3.10;;;0.77;;
9108;SDS011;4590;51.462;6.692;2022-07-10T16:09:15;3.42;;;0.90;;
9108;SDS011;4590;51.462;6.692;2022-07-10T16:16:34;0.93;;;0.50;;
9108;SDS011;4590;51.462;6.692;2022-07-10T16:19:01;1.10;;;0.68;;
9108;SDS011;4590;51.462;6.692;2022-07-10T16:21:27;2.10;;;0.70;;
9108;SDS011;4590;51.462;6.692;2022-07-10T16:23:53;2.30;;;0.68;;
9108;SDS011;4590;51.462;6.692;2022-07-10T16:28:45;3.75;;;0.80;;
9108;SDS011;4590;51.462;6.692;2022-07-10T16:31:11;1.60;;;0.68;;
9108;SDS011;4590;51.462;6.692;2022-07-10T16:36:03;2.37;;;0.80;;
9108;SDS011;4590;51.462;6.692;2022-07-10T16:40:54;3.10;;;0.70;;
9108;SDS011;4590;51.462;6.692;2022-07-10T16:45:44;1.43;;;0.70;;
9108;SDS011;4590;51.462;6.692;2022-07-10T16:50:36;1.65;;;0.70;;
9108;SDS011;4590;51.462;6.692;2022-07-10T16:53:02;1.65;;;0.70;;
9108;SDS011;4590;51.462;6.692;2022-07-10T16:55:29;1.38;;;0.65;;
9108;SDS011;4590;51.462;6.692;2022-07-10T16:57:55;1.92;;;0.90;;
9108;SDS011;4590;51.462;6.692;2022-07-10T17:02:46;2.97;;;0.90;;
9108;SDS011;4590;51.462;6.692;2022-07-10T17:07:38;2.87;;;0.70;;
9108;SDS011;4590;51.462;6.692;2022-07-10T17:10:04;2.83;;;0.90;;
9108;SDS011;4590;51.462;6.692;2022-07-10T17:12:30;2.80;;;0.90;;
9108;SDS011;4590;51.462;6.692;2022-07-10T17:17:21;1.95;;;0.90;;
9108;SDS011;4590;51.462;6.692;2022-07-10T17:22:12;2.40;;;0.70;;
9108;SDS011;4590;51.462;6.692;2022-07-10T17:24:38;3.03;;;1.20;;
9108;SDS011;4590;51.462;6.692;2022-07-10T17:29:29;1.63;;;0.80;;
9108;SDS011;4590;51.462;6.692;2022-07-10T17:34:20;1.93;;;0.90;;
9108;SDS011;4590;51.462;6.692;2022-07-10T17:39:10;2.03;;;0.80;;
9108;SDS011;4590;51.462;6.692;2022-07-10T17:44:02;2.10;;;0.80;;
9108;SDS011;4590;51.462;6.692;2022-07-10T17:48:53;2.15;;;0.90;;
9108;SDS011;4590;51.462;6.692;2022-07-10T17:53:45;1.73;;;0.75;;
9108;SDS011;4590;51.462;6.692;2022-07-10T17:58:36;2.00;;;0.90;;
9108;SDS011;4590;51.462;6.692;2022-07-10T18:03:26;3.00;;;0.93;;
9108;SDS011;4590;51.462;6.692;2022-07-10T18:05:53;2.38;;;0.90;;
9108;SDS011;4590;51.462;6.692;2022-07-10T18:10:46;2.17;;;0.73;;